sensor_id;sensor_type;location;lat;lon;timestamp;pressure;altitude;pressure_sealevel;temperature;humidity
70437;BME280;57877;39.750;-104.894;2023-03-24T00:01:05;83214.57;;;8.88;19.94
70437;BME280;57877;39.750;-104.894;2023-03-24T00:03:31;83219.17;;;9.03;20.14
70437;BME280;57877;39.750;-104.894;2023-03-24T00:05:59;83226.98;;;8.25;20.77
70437;BME280;57877;39.750;-104.894;2023-03-24T00:08:23;83223.18;;;9.07;20.18
70437;BME280;57877;39.750;-104.894;2023-03-24T00:10:49;83226.37;;;8.73;20.82
70437;BME280;57877;39.750;-104.894;2023-03-24T00:13:14;83226.43;;;9.20;20.28
70437;BME280;57877;39.750;-104.894;2023-03-24T00:15:40;83228.22;;;9.10;20.18
70437;BME280;57877;39.750;-104.894;2023-03-24T00:18:07;83231.80;;;9.58;20.02
70437;BME280;57877;39.750;-104.894;2023-03-24T00:20:33;83240.27;;;8.28;20.47
70437;BME280;57877;39.750;-104.894;2023-03-24T00:22:59;83244.70;;;8.71;20.61
70437;BME280;57877;39.750;-104.894;2023-03-24T00:25:27;83246.92;;;8.12;20.88
70437;BME280;57877;39.750;-104.894;2023-03-24T00:27:50;83247.96;;;8.94;20.17
70437;BME280;57877;39.750;-104.894;2023-03-24T00:30:16;83251.65;;;8.38;20.47
70437;BME280;57877;39.750;-104.894;2023-03-24T00:32:41;83250.76;;;7.92;21.03
70437;BME280;57877;39.750;-104.894;2023-03-24T00:35:09;83251.84;;;7.01;21.85
70437;BME280;57877;39.750;-104.894;2023-03-24T00:37:33;83252.19;;;8.01;21.26
70437;BME280;57877;39.750;-104.894;2023-03-24T00:39:59;83254.39;;;8.69;20.63
70437;BME280;57877;39.750;-104.894;2023-03-24T00:42:25;83254.91;;;8.77;20.49
70437;BME280;57877;39.750;-104.894;2023-03-24T00:44:51;83256.89;;;8.74;20.47
70437;BME280;57877;39.750;-104.894;2023-03-24T00:47:17;83255.23;;;8.94;20.27
70437;BME280;57877;39.750;-104.894;2023-03-24T00:49:43;83257.21;;;8.64;20.30
70437;BME280;57877;39.750;-104.894;2023-03-24T00:52:10;83258.32;;;8.80;20.15
70437;BME280;57877;39.750;-104.894;2023-03-24T00:54:35;83259.87;;;9.22;19.98
70437;BME280;57877;39.750;-104.894;2023-03-24T00:57:01;83264.17;;;8.89;20.03
70437;BME280;57877;39.750;-104.894;2023-03-24T00:59:27;83267.51;;;8.28;20.77
70437;BME280;57877;39.750;-104.894;2023-03-24T01:01:53;83270.16;;;7.33;23.79
70437;BME280;57877;39.750;-104.894;2023-03-24T01:04:19;83268.94;;;7.43;24.34
70437;BME280;57877;39.750;-104.894;2023-03-24T01:06:44;83274.74;;;7.78;24.96
70437;BME280;57877;39.750;-104.894;2023-03-24T01:09:10;83278.55;;;7.21;25.23
70437;BME280;57877;39.750;-104.894;2023-03-24T01:11:38;83280.06;;;6.02;26.86
70437;BME280;57877;39.750;-104.894;2023-03-24T01:14:02;83284.20;;;6.28;26.82
70437;BME280;57877;39.750;-104.894;2023-03-24T01:16:28;83282.80;;;6.54;26.71
70437;BME280;57877;39.750;-104.894;2023-03-24T01:18:54;83287.46;;;6.39;26.81
70437;BME280;57877;39.750;-104.894;2023-03-24T01:21:19;83286.97;;;5.94;27.13
70437;BME280;57877;39.750;-104.894;2023-03-24T01:23:45;83291.30;;;7.06;26.23
70437;BME280;57877;39.750;-104.894;2023-03-24T01:26:11;83292.77;;;6.54;26.50
70437;BME280;57877;39.750;-104.894;2023-03-24T01:28:37;83295.95;;;7.05;25.91
70437;BME280;57877;39.750;-104.894;2023-03-24T01:31:02;83301.20;;;5.71;27.13
70437;BME280;57877;39.750;-104.894;2023-03-24T01:33:27;83301.92;;;5.80;27.66
70437;BME280;57877;39.750;-104.894;2023-03-24T01:35:52;83302.20;;;5.74;27.62
70437;BME280;57877;39.750;-104.894;2023-03-24T01:38:18;83304.04;;;5.44;28.21
70437;BME280;57877;39.750;-104.894;2023-03-24T01:40:45;83304.11;;;5.85;27.03
70437;BME280;57877;39.750;-104.894;2023-03-24T01:43:17;83303.41;;;6.36;26.65
70437;BME280;57877;39.750;-104.894;2023-03-24T01:45:43;83304.52;;;6.75;26.33
70437;BME280;57877;39.750;-104.894;2023-03-24T01:48:03;83304.62;;;6.42;26.21
70437;BME280;57877;39.750;-104.894;2023-03-24T01:50:29;83308.19;;;6.70;26.11
70437;BME280;57877;39.750;-104.894;2023-03-24T01:52:53;83309.74;;;5.81;27.19
70437;BME280;57877;39.750;-104.894;2023-03-24T01:55:19;83315.02;;;6.18;27.85
70437;BME280;57877;39.750;-104.894;2023-03-24T01:57:48;83315.01;;;5.77;28.48
70437;BME280;57877;39.750;-104.894;2023-03-24T02:00:12;83311.92;;;5.87;28.20
70437;BME280;57877;39.750;-104.894;2023-03-24T02:02:36;83314.49;;;5.23;28.85
70437;BME280;57877;39.750;-104.894;2023-03-24T02:05:03;83317.16;;;5.20;29.19
70437;BME280;57877;39.750;-104.894;2023-03-24T02:07:32;83319.27;;;5.81;28.16
70437;BME280;57877;39.750;-104.894;2023-03-24T02:09:52;83318.67;;;5.97;28.37
70437;BME280;57877;39.750;-104.894;2023-03-24T02:12:18;83326.60;;;5.62;28.05
70437;BME280;57877;39.750;-104.894;2023-03-24T02:14:43;83336.69;;;4.16;31.25
70437;BME280;57877;39.750;-104.894;2023-03-24T02:19:50;83352.06;;;4.70;34.15
70437;BME280;57877;39.750;-104.894;2023-03-24T02:24:43;83357.28;;;3.82;34.96
70437;BME280;57877;39.750;-104.894;2023-03-24T02:26:56;83362.71;;;3.93;35.24
70437;BME280;57877;39.750;-104.894;2023-03-24T02:31:53;83362.86;;;3.62;36.44
70437;BME280;57877;39.750;-104.894;2023-03-24T02:41:26;83375.31;;;3.61;36.18
70437;BME280;57877;39.750;-104.894;2023-03-24T02:43:53;83373.69;;;4.22;35.14
70437;BME280;57877;39.750;-104.894;2023-03-24T02:46:17;83373.23;;;4.59;34.29
70437;BME280;57877;39.750;-104.894;2023-03-24T02:48:43;83376.79;;;4.04;35.28
70437;BME280;57877;39.750;-104.894;2023-03-24T02:51:07;83376.92;;;4.59;34.66
70437;BME280;57877;39.750;-104.894;2023-03-24T02:53:31;83374.51;;;5.03;34.11
70437;BME280;57877;39.750;-104.894;2023-03-24T02:55:55;83377.81;;;5.34;33.30
70437;BME280;57877;39.750;-104.894;2023-03-24T02:58:20;83376.13;;;5.27;32.92
70437;BME280;57877;39.750;-104.894;2023-03-24T03:00:45;83381.26;;;5.50;32.52
70437;BME280;57877;39.750;-104.894;2023-03-24T03:03:10;83381.68;;;5.82;32.04
70437;BME280;57877;39.750;-104.894;2023-03-24T03:05:34;83382.35;;;5.52;31.90
70437;BME280;57877;39.750;-104.894;2023-03-24T03:07:59;83386.87;;;5.75;31.60
70437;BME280;57877;39.750;-104.894;2023-03-24T03:10:24;83387.70;;;5.47;31.68
70437;BME280;57877;39.750;-104.894;2023-03-24T03:12:51;83391.50;;;5.88;30.96
70437;BME280;57877;39.750;-104.894;2023-03-24T03:15:17;83390.83;;;5.32;31.70
70437;BME280;57877;39.750;-104.894;2023-03-24T03:17:43;83394.78;;;6.02;31.38
70437;BME280;57877;39.750;-104.894;2023-03-24T03:20:09;83398.75;;;6.01;31.32
70437;BME280;57877;39.750;-104.894;2023-03-24T03:22:35;83398.63;;;5.84;31.05
70437;BME280;57877;39.750;-104.894;2023-03-24T03:24:55;83396.67;;;6.56;30.06
70437;BME280;57877;39.750;-104.894;2023-03-24T03:27:21;83398.36;;;6.46;29.70
70437;BME280;57877;39.750;-104.894;2023-03-24T03:29:48;83403.28;;;5.74;30.35
70437;BME280;57877;39.750;-104.894;2023-03-24T03:32:12;83406.16;;;6.10;30.03
70437;BME280;57877;39.750;-104.894;2023-03-24T03:34:38;83406.98;;;5.56;30.74
70437;BME280;57877;39.750;-104.894;2023-03-24T03:37:04;83408.20;;;4.82;32.09
70437;BME280;57877;39.750;-104.894;2023-03-24T03:39:28;83413.52;;;5.53;32.46
70437;BME280;57877;39.750;-104.894;2023-03-24T03:41:50;83416.31;;;6.09;32.74
70437;BME280;57877;39.750;-104.894;2023-03-24T03:44:15;83421.27;;;5.18;35.95
70437;BME280;57877;39.750;-104.894;2023-03-24T03:46:40;83422.47;;;4.19;37.78
70437;BME280;57877;39.750;-104.894;2023-03-24T03:49:06;83427.06;;;3.94;39.69
70437;BME280;57877;39.750;-104.894;2023-03-24T03:51:32;83425.19;;;4.61;38.42
70437;BME280;57877;39.750;-104.894;2023-03-24T03:53:57;83423.83;;;4.27;38.60
70437;BME280;57877;39.750;-104.894;2023-03-24T03:56:23;83426.20;;;4.13;39.74
70437;BME280;57877;39.750;-104.894;2023-03-24T03:58:46;83425.01;;;4.25;39.94
70437;BME280;57877;39.750;-104.894;2023-03-24T04:01:13;83421.99;;;3.55;41.54
70437;BME280;57877;39.750;-104.894;2023-03-24T04:03:50;83419.46;;;2.89;43.52
70437;BME280;57877;39.750;-104.894;2023-03-24T04:06:13;83419.75;;;2.48;45.72
70437;BME280;57877;39.750;-104.894;2023-03-24T04:08:33;83418.19;;;2.86;45.03
70437;BME280;57877;39.750;-104.894;2023-03-24T04:13:23;83409.84;;;2.87;45.28
70437;BME280;57877;39.750;-104.894;2023-03-24T04:15:45;83399.42;;;2.63;46.24
70437;BME280;57877;39.750;-104.894;2023-03-24T04:18:16;83395.45;;;2.74;45.71
70437;BME280;57877;39.750;-104.894;2023-03-24T04:20:38;83396.42;;;3.03;46.85
70437;BME280;57877;39.750;-104.894;2023-03-24T04:23:05;83404.40;;;2.85;50.79
70437;BME280;57877;39.750;-104.894;2023-03-24T04:25:28;83405.10;;;3.20;47.75
70437;BME280;57877;39.750;-104.894;2023-03-24T04:27:51;83405.77;;;2.92;49.69
70437;BME280;57877;39.750;-104.894;2023-03-24T04:30:15;83405.56;;;2.79;49.40
70437;BME280;57877;39.750;-104.894;2023-03-24T04:32:40;83397.01;;;2.53;49.65
70437;BME280;57877;39.750;-104.894;2023-03-24T04:35:05;83399.66;;;3.18;47.63
70437;BME280;57877;39.750;-104.894;2023-03-24T04:37:29;83396.77;;;3.64;46.13
70437;BME280;57877;39.750;-104.894;2023-03-24T04:39:54;83393.14;;;3.07;46.99
70437;BME280;57877;39.750;-104.894;2023-03-24T04:42:21;83389.57;;;3.27;45.78
70437;BME280;57877;39.750;-104.894;2023-03-24T04:44:43;83392.97;;;3.79;44.17
70437;BME280;57877;39.750;-104.894;2023-03-24T04:47:08;83385.72;;;3.95;44.38
70437;BME280;57877;39.750;-104.894;2023-03-24T04:49:37;83382.34;;;3.56;45.21
70437;BME280;57877;39.750;-104.894;2023-03-24T04:51:58;83373.27;;;3.40;45.31
70437;BME280;57877;39.750;-104.894;2023-03-24T04:54:23;83366.69;;;3.60;45.67
70437;BME280;57877;39.750;-104.894;2023-03-24T04:56:50;83366.32;;;3.53;45.77
70437;BME280;57877;39.750;-104.894;2023-03-24T04:59:13;83363.10;;;2.94;47.54
70437;BME280;57877;39.750;-104.894;2023-03-24T05:01:38;83363.43;;;3.29;47.13
70437;BME280;57877;39.750;-104.894;2023-03-24T05:04:04;83370.32;;;3.37;45.94
70437;BME280;57877;39.750;-104.894;2023-03-24T05:06:28;83374.55;;;3.51;45.62
70437;BME280;57877;39.750;-104.894;2023-03-24T05:08:53;83372.24;;;3.38;44.91
70437;BME280;57877;39.750;-104.894;2023-03-24T05:11:19;83369.46;;;3.44;45.01
70437;BME280;57877;39.750;-104.894;2023-03-24T05:13:44;83366.50;;;2.69;46.62
70437;BME280;57877;39.750;-104.894;2023-03-24T05:16:10;83365.47;;;2.03;48.43
70437;BME280;57877;39.750;-104.894;2023-03-24T05:18:34;83365.89;;;2.41;48.37
70437;BME280;57877;39.750;-104.894;2023-03-24T05:20:59;83364.50;;;2.17;48.74
70437;BME280;57877;39.750;-104.894;2023-03-24T05:23:25;83361.68;;;2.67;48.63
70437;BME280;57877;39.750;-104.894;2023-03-24T05:25:49;83360.49;;;2.62;48.40
70437;BME280;57877;39.750;-104.894;2023-03-24T05:28:15;83363.64;;;2.94;46.57
70437;BME280;57877;39.750;-104.894;2023-03-24T05:30:39;83363.10;;;3.14;45.71
70437;BME280;57877;39.750;-104.894;2023-03-24T05:33:04;83360.27;;;3.33;45.09
70437;BME280;57877;39.750;-104.894;2023-03-24T05:35:29;83358.46;;;3.25;45.40
70437;BME280;57877;39.750;-104.894;2023-03-24T05:37:55;83358.45;;;3.48;44.60
70437;BME280;57877;39.750;-104.894;2023-03-24T05:40:20;83354.86;;;3.29;44.59
70437;BME280;57877;39.750;-104.894;2023-03-24T05:42:47;83353.70;;;3.42;44.36
70437;BME280;57877;39.750;-104.894;2023-03-24T05:45:11;83351.56;;;3.32;44.98
70437;BME280;57877;39.750;-104.894;2023-03-24T05:47:35;83349.83;;;3.37;45.79
70437;BME280;57877;39.750;-104.894;2023-03-24T05:50:00;83349.16;;;3.00;45.90
70437;BME280;57877;39.750;-104.894;2023-03-24T05:52:25;83350.26;;;3.42;44.77
70437;BME280;57877;39.750;-104.894;2023-03-24T05:54:50;83347.45;;;4.00;43.42
70437;BME280;57877;39.750;-104.894;2023-03-24T05:57:16;83343.04;;;3.82;42.85
70437;BME280;57877;39.750;-104.894;2023-03-24T05:59:40;83342.28;;;3.21;44.06
70437;BME280;57877;39.750;-104.894;2023-03-24T06:02:05;83338.04;;;3.43;44.25
70437;BME280;57877;39.750;-104.894;2023-03-24T06:04:30;83337.27;;;3.52;44.05
70437;BME280;57877;39.750;-104.894;2023-03-24T06:06:55;83333.70;;;3.63;43.49
70437;BME280;57877;39.750;-104.894;2023-03-24T06:09:21;83332.93;;;3.32;44.23
70437;BME280;57877;39.750;-104.894;2023-03-24T06:11:46;83329.95;;;3.50;43.56
70437;BME280;57877;39.750;-104.894;2023-03-24T06:14:12;83328.11;;;3.61;43.20
70437;BME280;57877;39.750;-104.894;2023-03-24T06:16:39;83324.09;;;3.91;43.25
70437;BME280;57877;39.750;-104.894;2023-03-24T06:19:05;83326.56;;;2.93;44.78
70437;BME280;57877;39.750;-104.894;2023-03-24T06:21:31;83323.45;;;3.74;43.29
70437;BME280;57877;39.750;-104.894;2023-03-24T06:23:56;83323.91;;;3.20;44.37
70437;BME280;57877;39.750;-104.894;2023-03-24T06:26:21;83322.45;;;3.60;43.73
70437;BME280;57877;39.750;-104.894;2023-03-24T06:28:46;83320.28;;;4.02;43.07
70437;BME280;57877;39.750;-104.894;2023-03-24T06:31:12;83317.01;;;4.01;42.70
70437;BME280;57877;39.750;-104.894;2023-03-24T06:33:36;83316.41;;;3.27;43.20
70437;BME280;57877;39.750;-104.894;2023-03-24T06:36:03;83314.80;;;3.49;43.21
70437;BME280;57877;39.750;-104.894;2023-03-24T06:38:29;83314.01;;;3.27;43.70
70437;BME280;57877;39.750;-104.894;2023-03-24T06:41:00;83310.11;;;3.33;43.46
70437;BME280;57877;39.750;-104.894;2023-03-24T06:43:21;83308.82;;;3.92;42.82
70437;BME280;57877;39.750;-104.894;2023-03-24T06:45:46;83310.47;;;3.59;42.72
70437;BME280;57877;39.750;-104.894;2023-03-24T06:48:11;83310.57;;;3.64;42.28
70437;BME280;57877;39.750;-104.894;2023-03-24T06:50:36;83305.05;;;3.68;42.23
70437;BME280;57877;39.750;-104.894;2023-03-24T06:53:01;83301.08;;;3.89;42.68
70437;BME280;57877;39.750;-104.894;2023-03-24T06:55:26;83301.20;;;3.44;42.24
70437;BME280;57877;39.750;-104.894;2023-03-24T06:57:51;83301.54;;;3.37;42.50
70437;BME280;57877;39.750;-104.894;2023-03-24T07:00:16;83299.58;;;3.52;43.00
70437;BME280;57877;39.750;-104.894;2023-03-24T07:02:41;83297.27;;;3.24;42.81
70437;BME280;57877;39.750;-104.894;2023-03-24T07:05:07;83296.60;;;3.69;42.27
70437;BME280;57877;39.750;-104.894;2023-03-24T07:07:31;83293.11;;;3.66;42.25
70437;BME280;57877;39.750;-104.894;2023-03-24T07:09:56;83289.99;;;3.54;41.82
70437;BME280;57877;39.750;-104.894;2023-03-24T07:12:21;83289.74;;;3.22;42.31
70437;BME280;57877;39.750;-104.894;2023-03-24T07:14:46;83287.93;;;3.74;42.36
70437;BME280;57877;39.750;-104.894;2023-03-24T07:17:11;83287.96;;;3.45;42.20
70437;BME280;57877;39.750;-104.894;2023-03-24T07:19:37;83284.77;;;3.43;42.43
70437;BME280;57877;39.750;-104.894;2023-03-24T07:22:01;83284.09;;;3.30;42.61
70437;BME280;57877;39.750;-104.894;2023-03-24T07:24:27;83281.92;;;3.26;42.46
70437;BME280;57877;39.750;-104.894;2023-03-24T07:26:51;83284.08;;;3.27;42.50
70437;BME280;57877;39.750;-104.894;2023-03-24T07:29:16;83286.02;;;3.10;42.62
70437;BME280;57877;39.750;-104.894;2023-03-24T07:31:41;83284.82;;;3.26;42.24
70437;BME280;57877;39.750;-104.894;2023-03-24T07:34:07;83285.02;;;3.17;42.38
70437;BME280;57877;39.750;-104.894;2023-03-24T07:36:32;83282.70;;;2.99;42.02
70437;BME280;57877;39.750;-104.894;2023-03-24T07:38:57;83281.57;;;2.63;42.78
70437;BME280;57877;39.750;-104.894;2023-03-24T07:41:22;83279.78;;;2.96;42.72
70437;BME280;57877;39.750;-104.894;2023-03-24T07:43:47;83277.64;;;2.77;42.46
70437;BME280;57877;39.750;-104.894;2023-03-24T07:46:12;83278.45;;;3.11;42.38
70437;BME280;57877;39.750;-104.894;2023-03-24T07:48:37;83275.70;;;2.58;43.46
70437;BME280;57877;39.750;-104.894;2023-03-24T07:51:02;83270.82;;;3.11;42.32
70437;BME280;57877;39.750;-104.894;2023-03-24T07:53:27;83268.54;;;2.91;42.10
70437;BME280;57877;39.750;-104.894;2023-03-24T07:55:52;83266.02;;;3.15;41.87
70437;BME280;57877;39.750;-104.894;2023-03-24T07:58:17;83267.73;;;3.18;41.78
70437;BME280;57877;39.750;-104.894;2023-03-24T08:00:42;83268.35;;;3.09;41.90
70437;BME280;57877;39.750;-104.894;2023-03-24T08:03:08;83266.92;;;2.61;41.73
70437;BME280;57877;39.750;-104.894;2023-03-24T08:05:32;83264.93;;;2.95;41.61
70437;BME280;57877;39.750;-104.894;2023-03-24T08:07:57;83262.51;;;2.38;42.28
70437;BME280;57877;39.750;-104.894;2023-03-24T08:10:24;83258.39;;;2.57;41.94
70437;BME280;57877;39.750;-104.894;2023-03-24T08:12:48;83257.45;;;2.75;41.40
70437;BME280;57877;39.750;-104.894;2023-03-24T08:15:12;83256.13;;;2.71;41.71
70437;BME280;57877;39.750;-104.894;2023-03-24T08:17:37;83250.17;;;2.47;42.08
70437;BME280;57877;39.750;-104.894;2023-03-24T08:20:04;83247.99;;;2.35;42.31
70437;BME280;57877;39.750;-104.894;2023-03-24T08:22:28;83248.87;;;2.74;41.86
70437;BME280;57877;39.750;-104.894;2023-03-24T08:24:54;83246.31;;;2.44;41.86
70437;BME280;57877;39.750;-104.894;2023-03-24T08:27:19;83245.28;;;2.56;41.67
70437;BME280;57877;39.750;-104.894;2023-03-24T08:29:44;83248.14;;;2.67;41.46
70437;BME280;57877;39.750;-104.894;2023-03-24T08:32:09;83246.48;;;2.64;41.61
70437;BME280;57877;39.750;-104.894;2023-03-24T08:34:34;83243.39;;;2.38;41.78
70437;BME280;57877;39.750;-104.894;2023-03-24T08:36:59;83240.81;;;2.39;41.86
70437;BME280;57877;39.750;-104.894;2023-03-24T08:39:24;83241.49;;;2.72;41.82
70437;BME280;57877;39.750;-104.894;2023-03-24T08:41:49;83237.42;;;2.35;41.70
70437;BME280;57877;39.750;-104.894;2023-03-24T08:44:15;83233.83;;;2.11;42.06
70437;BME280;57877;39.750;-104.894;2023-03-24T08:46:40;83232.21;;;1.88;42.75
70437;BME280;57877;39.750;-104.894;2023-03-24T08:49:05;83225.14;;;1.57;44.02
70437;BME280;57877;39.750;-104.894;2023-03-24T08:51:30;83222.55;;;1.67;43.37
70437;BME280;57877;39.750;-104.894;2023-03-24T08:53:55;83220.30;;;1.20;44.35
70437;BME280;57877;39.750;-104.894;2023-03-24T08:56:21;83216.07;;;1.68;43.53
70437;BME280;57877;39.750;-104.894;2023-03-24T08:58:45;83215.46;;;1.64;43.35
70437;BME280;57877;39.750;-104.894;2023-03-24T09:01:10;83211.43;;;1.47;43.91
70437;BME280;57877;39.750;-104.894;2023-03-24T09:03:35;83205.14;;;0.80;45.12
70437;BME280;57877;39.750;-104.894;2023-03-24T09:06:01;83204.47;;;1.10;44.76
70437;BME280;57877;39.750;-104.894;2023-03-24T09:08:26;83203.21;;;1.51;43.76
70437;BME280;57877;39.750;-104.894;2023-03-24T09:10:51;83204.64;;;1.55;43.61
70437;BME280;57877;39.750;-104.894;2023-03-24T09:13:17;83205.65;;;0.92;44.11
70437;BME280;57877;39.750;-104.894;2023-03-24T09:15:46;83210.14;;;1.48;44.31
70437;BME280;57877;39.750;-104.894;2023-03-24T09:18:06;83214.12;;;1.92;43.66
70437;BME280;57877;39.750;-104.894;2023-03-24T09:20:31;83211.20;;;1.28;44.04
70437;BME280;57877;39.750;-104.894;2023-03-24T09:22:56;83208.05;;;1.15;44.02
70437;BME280;57877;39.750;-104.894;2023-03-24T09:25:23;83210.51;;;1.39;44.18
70437;BME280;57877;39.750;-104.894;2023-03-24T09:27:46;83208.51;;;0.96;44.29
70437;BME280;57877;39.750;-104.894;2023-03-24T09:30:13;83206.36;;;1.41;43.75
70437;BME280;57877;39.750;-104.894;2023-03-24T09:32:37;83199.08;;;-0.16;45.49
70437;BME280;57877;39.750;-104.894;2023-03-24T09:35:01;83197.95;;;0.27;45.81
70437;BME280;57877;39.750;-104.894;2023-03-24T09:37:28;83200.89;;;0.55;45.51
70437;BME280;57877;39.750;-104.894;2023-03-24T09:39:51;83199.07;;;0.96;44.68
70437;BME280;57877;39.750;-104.894;2023-03-24T09:42:22;83198.19;;;0.59;44.76
70437;BME280;57877;39.750;-104.894;2023-03-24T09:44:43;83194.87;;;0.95;44.13
70437;BME280;57877;39.750;-104.894;2023-03-24T09:47:15;83193.52;;;0.77;44.31
70437;BME280;57877;39.750;-104.894;2023-03-24T09:49:36;83190.46;;;0.66;43.75
70437;BME280;57877;39.750;-104.894;2023-03-24T09:52:03;83187.87;;;0.57;43.79
70437;BME280;57877;39.750;-104.894;2023-03-24T09:54:29;83184.57;;;0.72;44.07
70437;BME280;57877;39.750;-104.894;2023-03-24T09:56:48;83184.72;;;0.88;43.78
70437;BME280;57877;39.750;-104.894;2023-03-24T09:59:17;83186.89;;;1.15;43.34
70437;BME280;57877;39.750;-104.894;2023-03-24T10:01:38;83190.65;;;1.37;43.16
70437;BME280;57877;39.750;-104.894;2023-03-24T10:04:06;83191.20;;;1.13;42.74
70437;BME280;57877;39.750;-104.894;2023-03-24T10:06:30;83191.23;;;0.82;43.20
70437;BME280;57877;39.750;-104.894;2023-03-24T10:09:03;83193.49;;;0.40;44.26
70437;BME280;57877;39.750;-104.894;2023-03-24T10:11:27;83190.37;;;0.28;44.25
70437;BME280;57877;39.750;-104.894;2023-03-24T10:13:52;83186.44;;;0.85;43.56
70437;BME280;57877;39.750;-104.894;2023-03-24T10:16:14;83185.50;;;0.67;43.66
70437;BME280;57877;39.750;-104.894;2023-03-24T10:18:38;83182.22;;;0.65;43.73
70437;BME280;57877;39.750;-104.894;2023-03-24T10:21:03;83182.36;;;0.83;43.34
70437;BME280;57877;39.750;-104.894;2023-03-24T10:23:30;83179.48;;;0.59;43.82
70437;BME280;57877;39.750;-104.894;2023-03-24T10:25:53;83179.19;;;0.87;43.22
70437;BME280;57877;39.750;-104.894;2023-03-24T10:28:18;83176.90;;;0.75;43.49
70437;BME280;57877;39.750;-104.894;2023-03-24T10:30:41;83176.30;;;0.65;43.28
70437;BME280;57877;39.750;-104.894;2023-03-24T10:33:04;83182.03;;;0.56;43.85
70437;BME280;57877;39.750;-104.894;2023-03-24T10:35:32;83182.21;;;0.22;43.95
70437;BME280;57877;39.750;-104.894;2023-03-24T10:37:57;83184.33;;;0.40;43.67
70437;BME280;57877;39.750;-104.894;2023-03-24T10:40:21;83182.31;;;0.62;43.27
70437;BME280;57877;39.750;-104.894;2023-03-24T10:42:46;83186.36;;;0.04;43.65
70437;BME280;57877;39.750;-104.894;2023-03-24T10:45:13;83185.77;;;0.06;44.95
70437;BME280;57877;39.750;-104.894;2023-03-24T10:47:34;83184.80;;;-0.02;44.85
70437;BME280;57877;39.750;-104.894;2023-03-24T10:50:01;83183.07;;;-0.31;44.53
70437;BME280;57877;39.750;-104.894;2023-03-24T10:52:24;83182.03;;;-0.48;45.27
70437;BME280;57877;39.750;-104.894;2023-03-24T10:54:55;83182.15;;;-0.20;45.26
70437;BME280;57877;39.750;-104.894;2023-03-24T10:57:17;83183.10;;;-0.31;44.42
70437;BME280;57877;39.750;-104.894;2023-03-24T10:59:48;83184.32;;;-0.49;45.95
70437;BME280;57877;39.750;-104.894;2023-03-24T11:02:16;83187.26;;;-0.83;45.55
70437;BME280;57877;39.750;-104.894;2023-03-24T11:04:30;83185.74;;;-0.47;45.30
70437;BME280;57877;39.750;-104.894;2023-03-24T11:07:02;83190.22;;;-0.06;44.01
70437;BME280;57877;39.750;-104.894;2023-03-24T11:09:21;83190.15;;;-0.50;45.04
70437;BME280;57877;39.750;-104.894;2023-03-24T11:11:45;83190.75;;;-0.65;45.36
70437;BME280;57877;39.750;-104.894;2023-03-24T11:14:18;83188.68;;;-1.08;46.33
70437;BME280;57877;39.750;-104.894;2023-03-24T11:16:37;83185.71;;;-0.18;44.29
70437;BME280;57877;39.750;-104.894;2023-03-24T11:19:02;83184.62;;;-0.13;44.01
70437;BME280;57877;39.750;-104.894;2023-03-24T11:21:28;83180.65;;;-0.07;44.02
70437;BME280;57877;39.750;-104.894;2023-03-24T11:23:51;83182.68;;;-0.30;44.05
70437;BME280;57877;39.750;-104.894;2023-03-24T11:26:18;83182.39;;;-1.65;46.93
70437;BME280;57877;39.750;-104.894;2023-03-24T11:28:44;83181.57;;;-1.65;46.67
70437;BME280;57877;39.750;-104.894;2023-03-24T11:31:08;83182.40;;;-1.22;45.44
70437;BME280;57877;39.750;-104.894;2023-03-24T11:33:33;83181.91;;;-1.73;46.97
70437;BME280;57877;39.750;-104.894;2023-03-24T11:35:56;83183.50;;;-1.39;45.98
70437;BME280;57877;39.750;-104.894;2023-03-24T11:38:27;83183.88;;;-1.54;47.22
70437;BME280;57877;39.750;-104.894;2023-03-24T11:40:52;83181.62;;;-1.61;47.44
70437;BME280;57877;39.750;-104.894;2023-03-24T11:43:18;83181.49;;;-1.67;47.34
70437;BME280;57877;39.750;-104.894;2023-03-24T11:45:38;83182.17;;;-1.48;46.33
70437;BME280;57877;39.750;-104.894;2023-03-24T11:48:04;83180.53;;;-1.13;46.00
70437;BME280;57877;39.750;-104.894;2023-03-24T11:50:29;83184.95;;;-0.77;44.36
70437;BME280;57877;39.750;-104.894;2023-03-24T11:52:55;83183.14;;;-1.94;46.79
70437;BME280;57877;39.750;-104.894;2023-03-24T11:55:20;83182.79;;;-2.29;46.99
70437;BME280;57877;39.750;-104.894;2023-03-24T11:57:49;83178.08;;;-1.98;46.54
70437;BME280;57877;39.750;-104.894;2023-03-24T12:00:13;83180.71;;;-1.76;46.25
70437;BME280;57877;39.750;-104.894;2023-03-24T12:02:44;83179.44;;;-1.49;46.01
70437;BME280;57877;39.750;-104.894;2023-03-24T12:09:50;83173.72;;;-1.95;46.23
70437;BME280;57877;39.750;-104.894;2023-03-24T12:12:22;83172.95;;;-1.73;45.89
70437;BME280;57877;39.750;-104.894;2023-03-24T12:14:48;83169.82;;;-1.18;44.84
70437;BME280;57877;39.750;-104.894;2023-03-24T12:17:09;83166.36;;;-1.83;45.59
70437;BME280;57877;39.750;-104.894;2023-03-24T12:22:00;83169.23;;;-2.07;46.22
70437;BME280;57877;39.750;-104.894;2023-03-24T12:24:29;83169.20;;;-1.50;45.33
70437;BME280;57877;39.750;-104.894;2023-03-24T12:26:44;83169.27;;;-1.28;44.32
70437;BME280;57877;39.750;-104.894;2023-03-24T12:29:18;83172.04;;;-0.84;43.49
70437;BME280;57877;39.750;-104.894;2023-03-24T12:31:45;83173.28;;;-0.52;42.20
70437;BME280;57877;39.750;-104.894;2023-03-24T12:34:06;83169.18;;;-0.42;41.77
70437;BME280;57877;39.750;-104.894;2023-03-24T12:36:36;83166.89;;;-0.30;41.66
70437;BME280;57877;39.750;-104.894;2023-03-24T12:39:03;83163.60;;;-0.57;41.40
70437;BME280;57877;39.750;-104.894;2023-03-24T12:41:23;83165.30;;;-1.28;43.02
70437;BME280;57877;39.750;-104.894;2023-03-24T12:43:47;83166.65;;;-1.90;43.85
70437;BME280;57877;39.750;-104.894;2023-03-24T12:46:14;83165.68;;;-1.77;44.01
70437;BME280;57877;39.750;-104.894;2023-03-24T12:48:39;83167.31;;;-1.42;42.89
70437;BME280;57877;39.750;-104.894;2023-03-24T12:51:05;83165.32;;;-1.31;43.48